ENG ESP
Escola de Pilots
Telèfon 972234126 972 23 41 26
 
Aerbrava - meteorologia

Informació meteorològica aeronàutica

 

En aquest apartat apareix la informació meteorològica aeronàutica que és utilitzada a les pràctiques dels alumnes de l’Escola de Pilots del nostre centre durant la seva formació, pel que pot no ser actual i s’hauria d’utilitzar pel seu propi compte i risc. AERBRAVA no es fa responsable del seu ús.

 

TEMPS ACTUAL

Satèl·lit Meteorològic

sat24.com

Servei Meteorològic de Catalunya

 

LEGE 070000Z VRB02KT 9999 BKN045 21/19 Q1016
LEGE 062330Z VRB02KT 9999 SCT045 22/18 Q1016
LEGE 062300Z VRB02KT 9999 SCT045 22/19 Q1016
LEGE 062230Z VRB01KT 9999 FEW050 22/20 Q1016
LEGE 062200Z VRB02KT 9999 FEW050 22/20 Q1016
LEGE 062130Z VRB02KT 9999 FEW060 22/20 Q1016
LEGE 062100Z 22003KT 190V260 9999 FEW060 22/20 Q1016
LEGE 062030Z 21004KT 170V250 9999 FEW060 23/20 Q1016
TAF LEGE 062300Z 0700/0724 VRB04KT 9999 FEW025 TX30/0713Z TN18/0706Z   PROB40   TEMPO 0700/0708 BKN014   BECMG 0710/0713 19010KT   BECMG 0718/0721 VRB03KT

Aviation Weather

 
Aerbrava en el facebook Aerbrava en el twitter Aerbrava instagram Aerbrava en el youtube Aerbrava tumblr Aerbrava flikr Aerbrava pinterest

¡html Vàlid! ¡CSS Vàlid!